createdAt,value
2022-12-16T00:00:16.784Z,97163.55
2022-12-16T00:03:04.900Z,97171.13
2022-12-16T00:05:37.752Z,97170.91
2022-12-16T00:08:08.235Z,97168.24
2022-12-16T00:10:53.204Z,97161.52
2022-12-16T00:13:23.035Z,97162.69
2022-12-16T00:15:51.134Z,97154.39
2022-12-16T00:18:20.174Z,97150.70
2022-12-16T00:20:51.374Z,97149.25
2022-12-16T00:23:20.573Z,97147.60
2022-12-16T00:25:48.784Z,97144.97
2022-12-16T00:28:17.974Z,97137.11
2022-12-16T00:30:48.591Z,97136.55
2022-12-16T00:33:17.554Z,97130.80
2022-12-16T00:35:46.106Z,97131.80
2022-12-16T00:38:15.362Z,97130.75
2022-12-16T00:40:43.915Z,97122.64
2022-12-16T00:43:12.147Z,97124.38
2022-12-16T00:45:40.347Z,97127.48
2022-12-16T00:48:08.419Z,97125.48
2022-12-16T00:50:39.699Z,97123.52
2022-12-16T00:53:07.695Z,97126.93
2022-12-16T00:55:36.598Z,97119.08
2022-12-16T00:58:06.082Z,97111.95
2022-12-16T01:00:34.097Z,97109.66
2022-12-16T01:03:02.214Z,97103.55
2022-12-16T01:05:30.447Z,97107.25
2022-12-16T01:07:58.411Z,97102.29
2022-12-16T01:10:26.476Z,97101.58
2022-12-16T01:12:54.604Z,97099.79
2022-12-16T01:15:23.977Z,97095.98
2022-12-16T01:17:52.288Z,97096.34
2022-12-16T01:20:20.323Z,97098.42
2022-12-16T01:22:48.303Z,97094.86
2022-12-16T01:25:17.785Z,97087.89
2022-12-16T01:27:45.831Z,97085.61
2022-12-16T01:30:16.461Z,97093.52
2022-12-16T01:32:44.989Z,97090.66
2022-12-16T01:35:43.946Z,97067.34
2022-12-16T01:38:01.533Z,97051.16
2022-12-16T01:40:30.019Z,97058.04
2022-12-16T01:42:58.042Z,97067.36
2022-12-16T01:45:33.444Z,97066.19
2022-12-16T01:48:29.137Z,97066.73
2022-12-16T01:51:21.099Z,97060.89
2022-12-16T01:53:55.586Z,97063.11
2022-12-16T01:56:28.243Z,97059.05
2022-12-16T01:58:57.463Z,97043.55
2022-12-16T02:01:28.203Z,97038.87
2022-12-16T02:03:58.628Z,97049.97
2022-12-16T02:06:28.671Z,97074.95
2022-12-16T02:08:59.351Z,97048.54
2022-12-16T02:11:36.667Z,97041.58
2022-12-16T02:14:17.807Z,97027.55
2022-12-16T02:17:05.590Z,97013.20
2022-12-16T02:19:52.381Z,96990.60
2022-12-16T02:22:44.741Z,96983.71
2022-12-16T02:25:25.790Z,96988.34
2022-12-16T02:28:05.976Z,96982.81
2022-12-16T02:31:03.167Z,96992.86
2022-12-16T02:33:39.900Z,97012.55
2022-12-16T02:36:26.761Z,97010.71
2022-12-16T02:39:05.027Z,97008.34
2022-12-16T02:41:58.603Z,97014.03
2022-12-16T02:44:49.957Z,97007.52
2022-12-16T02:47:18.630Z,97013.20
2022-12-16T02:49:55.204Z,97024.11
2022-12-16T02:52:26.918Z,97030.05
2022-12-16T02:55:02.343Z,97043.03
2022-12-16T02:57:45.437Z,97045.00
2022-12-16T03:00:22.928Z,97039.95
2022-12-16T03:03:17.274Z,97030.89
2022-12-16T03:05:48.722Z,97023.58
2022-12-16T03:08:24.075Z,97005.67
2022-12-16T03:10:58.073Z,97012.27
2022-12-16T03:13:31.215Z,97021.35
2022-12-16T03:16:01.633Z,97013.96
2022-12-16T03:18:30.248Z,97017.63
2022-12-16T03:21:05.341Z,96996.63
2022-12-16T03:23:45.717Z,96990.80
2022-12-16T03:26:23.031Z,96989.76
2022-12-16T03:28:53.724Z,96994.78
2022-12-16T03:31:36.378Z,96985.48
2022-12-16T03:34:12.228Z,96964.73
2022-12-16T03:36:42.207Z,96952.88
2022-12-16T03:39:11.273Z,96952.05
2022-12-16T03:41:39.965Z,96960.38
2022-12-16T03:44:08.351Z,96971.03
2022-12-16T03:46:36.690Z,96969.30
2022-12-16T03:49:04.776Z,96959.30
2022-12-16T03:51:33.345Z,96954.22
2022-12-16T03:54:01.437Z,96952.11
2022-12-16T03:56:29.392Z,96947.75
2022-12-16T03:58:57.345Z,96943.80
2022-12-16T04:01:25.460Z,96945.44
2022-12-16T04:03:53.976Z,96939.77
2022-12-16T04:06:22.002Z,96929.55
2022-12-16T04:08:50.124Z,96915.44
2022-12-16T04:11:37.179Z,96906.90
2022-12-16T04:14:23.793Z,96895.31
2022-12-16T04:17:10.812Z,96884.89
2022-12-16T04:19:57.788Z,96872.23
2022-12-16T04:22:48.752Z,96872.38
2022-12-16T04:25:21.916Z,96874.86
2022-12-16T04:27:50.099Z,96875.00
2022-12-16T04:30:20.090Z,96878.48
2022-12-16T04:33:15.463Z,96885.56
2022-12-16T04:36:02.721Z,96885.73
2022-12-16T04:39:09.474Z,96892.27
2022-12-16T04:41:56.202Z,96886.95
2022-12-16T04:44:44.495Z,96882.45
2022-12-16T04:47:31.248Z,96863.69
2022-12-16T04:50:17.951Z,96864.66
2022-12-16T04:53:04.833Z,96862.82
2022-12-16T04:55:51.070Z,96876.82
2022-12-16T04:58:37.829Z,96886.94
2022-12-16T05:01:25.016Z,96878.48
2022-12-16T05:04:11.506Z,96886.75
2022-12-16T05:06:58.215Z,96891.98
2022-12-16T05:09:45.009Z,96887.55
2022-12-16T05:12:34.264Z,96876.40
2022-12-16T05:15:21.044Z,96862.98
2022-12-16T05:18:09.355Z,96876.98
2022-12-16T05:20:56.194Z,96894.13
2022-12-16T05:23:42.721Z,96893.83
2022-12-16T05:26:29.201Z,96893.14
2022-12-16T05:29:15.511Z,96881.02
2022-12-16T05:32:04.385Z,96874.02
2022-12-16T05:34:51.995Z,96869.74
2022-12-16T05:37:38.707Z,96861.64
2022-12-16T05:40:26.411Z,96867.42
2022-12-16T05:43:16.693Z,96856.30
2022-12-16T05:46:06.721Z,96839.67
2022-12-16T05:48:53.552Z,96836.38
2022-12-16T05:51:40.858Z,96841.38
2022-12-16T05:54:28.251Z,96848.86
2022-12-16T05:57:16.426Z,96851.57
2022-12-16T06:00:02.844Z,96833.16
2022-12-16T06:03:05.659Z,96840.88
2022-12-16T06:05:53.276Z,96856.05
2022-12-16T06:08:40.033Z,96845.69
2022-12-16T06:11:26.447Z,96839.79
2022-12-16T06:14:14.273Z,96827.85
2022-12-16T06:17:00.934Z,96826.88
2022-12-16T06:19:47.642Z,96824.24
2022-12-16T06:22:33.994Z,96810.23
2022-12-16T06:25:20.279Z,96812.86
2022-12-16T06:28:11.568Z,96824.74
2022-12-16T06:30:59.859Z,96816.59
2022-12-16T06:33:50.655Z,96825.44
2022-12-16T06:36:41.575Z,96834.53
2022-12-16T06:39:29.301Z,96828.70
2022-12-16T06:42:16.386Z,96839.71
2022-12-16T06:45:04.110Z,96831.52
2022-12-16T06:47:50.480Z,96827.59
2022-12-16T06:50:41.655Z,96830.94
2022-12-16T06:53:31.378Z,96814.30
2022-12-16T06:56:19.196Z,96809.11
2022-12-16T06:59:06.410Z,96810.13
2022-12-16T07:01:53.690Z,96810.24
2022-12-16T07:04:40.849Z,96819.70
2022-12-16T07:07:27.813Z,96819.42
2022-12-16T07:10:14.275Z,96818.54
2022-12-16T07:13:01.570Z,96816.27
2022-12-16T07:15:48.243Z,96812.20
2022-12-16T07:18:34.950Z,96804.67
2022-12-16T07:21:24.209Z,96810.58
2022-12-16T07:24:12.422Z,96804.20
2022-12-16T07:26:58.789Z,96796.27
2022-12-16T07:29:48.627Z,96791.30
2022-12-16T07:32:35.221Z,96789.15
2022-12-16T07:35:21.772Z,96775.73
2022-12-16T07:38:08.021Z,96772.74
2022-12-16T07:41:14.705Z,96776.59
2022-12-16T07:44:01.087Z,96768.06
2022-12-16T07:46:47.542Z,96766.84
2022-12-16T07:49:34.475Z,96765.80
2022-12-16T07:52:22.587Z,96756.59
2022-12-16T07:55:09.195Z,96755.98
2022-12-16T07:57:55.939Z,96763.83
2022-12-16T08:00:42.541Z,96752.55
2022-12-16T08:03:29.262Z,96745.99
2022-12-16T08:06:17.651Z,96745.42
2022-12-16T08:09:04.803Z,96750.70
2022-12-16T08:11:54.676Z,96743.16
2022-12-16T08:14:42.874Z,96747.00
2022-12-16T08:17:29.710Z,96750.98
2022-12-16T08:20:16.710Z,96745.23
2022-12-16T08:23:04.403Z,96732.66
2022-12-16T08:25:51.857Z,96743.12
2022-12-16T08:28:42.321Z,96742.96
2022-12-16T08:31:29.126Z,96756.13
2022-12-16T08:34:16.096Z,96758.08
2022-12-16T08:37:02.929Z,96774.20
2022-12-16T08:40:04.881Z,96770.70
2022-12-16T08:42:57.546Z,96764.86
2022-12-16T08:45:45.550Z,96763.34
2022-12-16T08:48:32.121Z,96758.70
2022-12-16T08:51:24.804Z,96756.30
2022-12-16T08:54:11.388Z,96773.14
2022-12-16T08:57:01.249Z,96761.96
2022-12-16T08:59:47.902Z,96762.07
2022-12-16T09:02:36.475Z,96770.48
2022-12-16T09:05:24.102Z,96770.87
2022-12-16T09:08:11.599Z,96775.04
2022-12-16T09:10:58.065Z,96768.39
2022-12-16T09:13:55.001Z,96754.52
2022-12-16T09:16:41.724Z,96756.42
2022-12-16T09:19:29.153Z,96764.78
2022-12-16T09:22:15.978Z,96759.97
2022-12-16T09:25:02.720Z,96764.23
2022-12-16T09:27:49.757Z,96756.02
2022-12-16T09:30:36.500Z,96752.39
2022-12-16T09:33:27.376Z,96739.83
2022-12-16T09:36:14.836Z,96743.89
2022-12-16T09:39:02.000Z,96747.27
2022-12-16T09:42:02.368Z,96751.79
2022-12-16T09:45:13.428Z,96768.39
2022-12-16T09:48:29.388Z,96761.21
2022-12-16T09:51:21.772Z,96752.44
2022-12-16T09:54:11.529Z,96754.98
2022-12-16T09:56:59.972Z,96764.29
2022-12-16T09:59:53.043Z,96757.55
2022-12-16T10:02:42.928Z,96749.66
2022-12-16T10:05:32.245Z,96738.55
2022-12-16T10:08:43.156Z,96749.23
2022-12-16T10:11:46.233Z,96749.23
2022-12-16T10:14:50.105Z,96753.63
2022-12-16T10:17:46.704Z,96755.77
2022-12-16T10:20:48.796Z,96749.17
2022-12-16T10:23:50.312Z,96739.02
2022-12-16T10:26:46.068Z,96742.52
2022-12-16T10:29:43.850Z,96743.70
2022-12-16T10:32:42.461Z,96736.72
2022-12-16T10:35:47.424Z,96738.17
2022-12-16T10:38:48.152Z,96729.36
2022-12-16T10:41:36.787Z,96730.00
2022-12-16T10:44:34.992Z,96734.84
2022-12-16T10:47:22.048Z,96729.69
2022-12-16T10:50:20.564Z,96721.50
2022-12-16T10:53:19.090Z,96721.56
2022-12-16T10:56:11.832Z,96724.46
2022-12-16T10:59:15.291Z,96740.14
2022-12-16T11:02:18.741Z,96741.85
2022-12-16T11:05:08.308Z,96724.34
2022-12-16T11:08:08.739Z,96733.98
2022-12-16T11:11:01.489Z,96732.86
2022-12-16T11:14:09.568Z,96730.21
2022-12-16T11:16:59.589Z,96731.23
2022-12-16T11:19:49.120Z,96730.49
2022-12-16T11:22:42.103Z,96742.45
2022-12-16T11:25:37.134Z,96740.98
2022-12-16T11:28:37.010Z,96747.52
2022-12-16T11:31:33.206Z,96751.38
2022-12-16T11:34:24.980Z,96752.94
2022-12-16T11:37:13.712Z,96742.70
2022-12-16T11:40:03.516Z,96735.32
2022-12-16T11:42:51.379Z,96748.08
2022-12-16T11:45:42.553Z,96751.27
2022-12-16T11:49:23.488Z,96752.88
2022-12-16T11:52:36.247Z,96749.95
2022-12-16T11:59:11.719Z,96741.61
2022-12-16T12:02:08.320Z,96740.52
2022-12-16T12:04:57.192Z,96738.61
2022-12-16T12:08:05.642Z,96727.30
2022-12-16T12:11:20.672Z,96718.69
2022-12-16T12:14:10.356Z,96723.81
2022-12-16T12:17:23.089Z,96732.19
2022-12-16T12:20:18.935Z,96730.42
2022-12-16T12:23:05.973Z,96731.90
2022-12-16T12:26:29.834Z,96724.61
2022-12-16T12:30:16.153Z,96724.14
2022-12-16T12:33:16.918Z,96716.27
2022-12-16T12:36:23.025Z,96718.31
2022-12-16T12:39:22.285Z,96720.89
2022-12-16T12:42:14.942Z,96725.31
2022-12-16T12:45:04.328Z,96729.23
2022-12-16T12:47:54.744Z,96733.22
2022-12-16T12:50:55.185Z,96745.29
2022-12-16T12:53:47.923Z,96748.54
2022-12-16T12:56:46.642Z,96749.82
2022-12-16T12:59:49.081Z,96748.00
2022-12-16T13:02:41.998Z,96744.98
2022-12-16T13:05:32.941Z,96746.58
2022-12-16T13:08:59.778Z,96757.17
2022-12-16T13:11:47.716Z,96760.95
2022-12-16T13:14:51.282Z,96762.86
2022-12-16T13:17:39.643Z,96761.39
2022-12-16T13:20:51.514Z,96763.45
2022-12-16T13:23:58.749Z,96747.17
2022-12-16T13:26:48.450Z,96741.05
2022-12-16T13:29:41.301Z,96748.77
2022-12-16T13:32:28.692Z,96748.26
2022-12-16T13:35:30.824Z,96745.90
2022-12-16T13:38:29.155Z,96747.63
2022-12-16T13:41:22.760Z,96750.15
2022-12-16T13:44:15.511Z,96752.79
2022-12-16T13:47:05.010Z,96761.72
2022-12-16T13:49:54.722Z,96779.55
2022-12-16T13:53:06.787Z,96792.74
2022-12-16T13:56:12.091Z,96799.70
2022-12-16T13:59:11.111Z,96805.63
2022-12-16T14:02:17.108Z,96815.23
2022-12-16T14:05:12.002Z,96814.97
2022-12-16T14:07:59.502Z,96824.14
2022-12-16T14:10:48.052Z,96824.08
2022-12-16T14:13:52.608Z,96814.37
2022-12-16T14:16:56.475Z,96809.05
2022-12-16T14:20:10.852Z,96820.35
2022-12-16T14:23:10.638Z,96824.16
2022-12-16T14:26:01.125Z,96835.42
2022-12-16T14:28:52.809Z,96833.07
2022-12-16T14:31:49.110Z,96838.66
2022-12-16T14:34:48.403Z,96838.52
2022-12-16T14:37:37.936Z,96835.23
2022-12-16T14:40:43.103Z,96839.55
2022-12-16T14:43:38.670Z,96837.85
2022-12-16T14:46:46.797Z,96828.50
2022-12-16T14:49:52.739Z,96829.95
2022-12-16T14:52:45.025Z,96836.30
2022-12-16T14:55:45.567Z,96845.12
2022-12-16T14:58:35.681Z,96866.04
2022-12-16T15:01:43.917Z,96875.25
2022-12-16T15:04:40.791Z,96873.44
2022-12-16T15:07:33.512Z,96872.70
2022-12-16T15:10:24.275Z,96885.33
2022-12-16T15:13:11.289Z,96877.29
2022-12-16T15:16:06.228Z,96869.36
2022-12-16T15:18:57.461Z,96881.55
2022-12-16T15:21:44.811Z,96888.77
2022-12-16T15:24:41.773Z,96903.61
2022-12-16T15:27:55.517Z,96894.45
2022-12-16T15:30:57.873Z,96882.04
2022-12-16T15:33:56.938Z,96880.56
2022-12-16T15:36:52.216Z,96894.16
2022-12-16T15:39:47.528Z,96906.31
2022-12-16T15:42:38.750Z,96907.02
2022-12-16T15:45:56.283Z,96901.91
2022-12-16T15:48:51.421Z,96893.89
2022-12-16T15:51:51.164Z,96878.20
2022-12-16T15:54:42.429Z,96868.90
2022-12-16T15:57:51.503Z,96872.61
2022-12-16T16:00:43.377Z,96888.44
2022-12-16T16:03:44.439Z,96883.46
2022-12-16T16:06:42.053Z,96886.81
2022-12-16T16:09:44.956Z,96876.38
2022-12-16T16:12:36.426Z,96882.66
2022-12-16T16:15:25.475Z,96914.38
2022-12-16T16:18:16.871Z,96904.10
2022-12-16T16:21:05.770Z,96893.57
2022-12-16T16:23:54.276Z,96888.75
2022-12-16T16:26:45.427Z,96897.13
2022-12-16T16:29:32.515Z,96909.02
2022-12-16T16:32:21.089Z,96908.98
2022-12-16T16:35:07.698Z,96893.90
2022-12-16T16:37:54.545Z,96909.54
2022-12-16T16:40:58.496Z,96924.65
2022-12-16T16:43:56.623Z,96923.00
2022-12-16T16:46:43.128Z,96928.84
2022-12-16T16:49:43.037Z,96939.67
2022-12-16T16:52:35.013Z,96951.30
2022-12-16T16:55:22.376Z,96952.13
2022-12-16T16:58:09.552Z,96975.50
2022-12-16T17:00:56.594Z,96979.83
2022-12-16T17:03:45.940Z,96957.75
2022-12-16T17:06:34.528Z,96959.86
2022-12-16T17:09:26.153Z,96957.05
2022-12-16T17:12:13.761Z,96969.58
2022-12-16T17:15:00.382Z,96978.90
2022-12-16T17:17:48.184Z,96985.10
2022-12-16T17:20:36.470Z,96991.58
2022-12-16T17:23:23.287Z,96990.48
2022-12-16T17:26:10.313Z,96984.39
2022-12-16T17:28:56.979Z,96986.08
2022-12-16T17:31:46.592Z,96986.88
2022-12-16T17:34:33.296Z,96974.23
2022-12-16T17:37:19.920Z,96980.05
2022-12-16T17:40:06.920Z,96994.00
2022-12-16T17:42:54.717Z,97005.13
2022-12-16T17:45:42.780Z,97001.66
2022-12-16T17:48:30.166Z,97006.03
2022-12-16T17:51:17.016Z,97018.44
2022-12-16T17:54:12.122Z,97014.25
2022-12-16T17:57:07.763Z,97011.89
2022-12-16T18:00:04.197Z,97012.33
2022-12-16T18:03:11.836Z,96994.09
2022-12-16T18:06:01.168Z,97003.30
2022-12-16T18:08:51.245Z,96994.34
2022-12-16T18:11:39.135Z,96984.58
2022-12-16T18:14:25.647Z,96982.49
2022-12-16T18:17:12.719Z,96985.55
2022-12-16T18:20:00.572Z,96984.20
2022-12-16T18:22:47.386Z,96987.92
2022-12-16T18:25:34.043Z,96979.98
2022-12-16T18:28:32.924Z,96976.34
2022-12-16T18:31:23.699Z,96968.58
2022-12-16T18:34:10.631Z,96971.96
2022-12-16T18:36:56.967Z,96973.47
2022-12-16T18:39:43.889Z,96974.73
2022-12-16T18:42:31.055Z,96976.90
2022-12-16T18:45:17.684Z,96980.94
2022-12-16T18:48:04.685Z,96978.69
2022-12-16T18:50:52.807Z,96989.11
2022-12-16T18:53:45.752Z,96995.11
2022-12-16T18:56:33.546Z,96993.77
2022-12-16T18:59:20.148Z,96990.70
2022-12-16T19:02:06.906Z,96986.13
2022-12-16T19:04:53.584Z,96975.09
2022-12-16T19:07:45.010Z,96955.79
2022-12-16T19:10:31.768Z,96949.16
2022-12-16T19:13:23.028Z,96953.26
2022-12-16T19:16:15.965Z,96964.19
2022-12-16T19:19:03.497Z,96986.58
2022-12-16T19:21:56.635Z,97006.73
2022-12-16T19:24:43.476Z,97002.69
2022-12-16T19:27:31.707Z,96998.25
2022-12-16T19:30:17.914Z,97003.05
2022-12-16T19:33:24.062Z,96999.77
2022-12-16T19:36:34.415Z,97006.34
2022-12-16T19:39:20.994Z,97000.70
2022-12-16T19:42:08.038Z,97001.10
2022-12-16T19:44:58.333Z,96998.09
2022-12-16T19:47:44.839Z,97003.30
2022-12-16T19:50:37.029Z,97005.74
2022-12-16T19:53:24.136Z,97002.80
2022-12-16T19:56:15.084Z,97007.90
2022-12-16T19:59:03.923Z,97020.61
2022-12-16T20:01:50.658Z,97034.45
2022-12-16T20:04:38.762Z,97025.31
2022-12-16T20:07:26.674Z,97014.59
2022-12-16T20:10:13.306Z,97022.41
2022-12-16T20:13:03.721Z,97022.80
2022-12-16T20:15:51.806Z,97027.55
2022-12-16T20:18:38.135Z,97026.85
2022-12-16T20:21:24.589Z,97002.23
2022-12-16T20:24:10.968Z,96988.40
2022-12-16T20:26:58.489Z,97015.46
2022-12-16T20:29:45.283Z,97013.49
2022-12-16T20:32:31.892Z,97004.89
2022-12-16T20:35:19.307Z,97011.79
2022-12-16T20:38:06.004Z,97027.17
2022-12-16T20:40:52.921Z,97025.88
2022-12-16T20:43:45.824Z,97032.30
2022-12-16T20:46:32.364Z,97038.95
2022-12-16T20:49:21.599Z,97041.81
2022-12-16T20:52:08.410Z,97052.28
2022-12-16T20:54:56.306Z,97042.36
2022-12-16T20:57:45.184Z,97042.88
2022-12-16T21:00:33.092Z,97024.45
2022-12-16T21:03:19.788Z,97020.91
2022-12-16T21:06:06.209Z,97024.80
2022-12-16T21:08:52.933Z,97039.96
2022-12-16T21:11:40.020Z,97049.46
2022-12-16T21:14:26.410Z,97041.55
2022-12-16T21:17:12.830Z,97044.67
2022-12-16T21:19:59.103Z,97039.61
2022-12-16T21:22:48.042Z,97036.35
2022-12-16T21:25:34.826Z,97028.83
2022-12-16T21:28:24.221Z,97029.17
2022-12-16T21:31:10.740Z,97028.81
2022-12-16T21:33:57.489Z,97022.41
2022-12-16T21:36:44.164Z,97015.58
2022-12-16T21:39:30.551Z,97025.63
2022-12-16T21:42:18.287Z,97016.27
2022-12-16T21:45:05.351Z,97013.91
2022-12-16T21:47:53.415Z,97006.70
2022-12-16T21:50:42.607Z,97003.41
2022-12-16T21:53:29.457Z,97010.91
2022-12-16T21:56:16.236Z,97019.52
2022-12-16T21:59:02.799Z,97017.70
2022-12-16T22:01:49.579Z,97018.19
2022-12-16T22:04:35.977Z,97025.92
2022-12-16T22:07:25.821Z,97018.15
2022-12-16T22:10:12.566Z,97005.63
2022-12-16T22:13:02.418Z,97020.05
2022-12-16T22:15:49.174Z,97020.97
2022-12-16T22:18:38.730Z,97018.60
2022-12-16T22:21:29.589Z,97007.07
2022-12-16T22:24:16.883Z,97015.89
2022-12-16T22:27:03.617Z,97021.60
2022-12-16T22:29:50.088Z,97010.95
2022-12-16T22:32:36.645Z,97001.24
2022-12-16T22:35:24.059Z,97008.88
2022-12-16T22:38:11.885Z,97006.71
2022-12-16T22:40:58.505Z,97003.42
2022-12-16T22:43:50.130Z,97002.38
2022-12-16T22:46:36.815Z,97005.09
2022-12-16T22:49:23.574Z,96999.36
2022-12-16T22:52:10.462Z,96995.00
2022-12-16T22:54:57.149Z,97007.66
2022-12-16T22:57:47.060Z,97010.02
2022-12-16T23:00:36.685Z,97024.33
2022-12-16T23:03:23.170Z,97020.64
2022-12-16T23:06:09.786Z,97008.06
2022-12-16T23:08:56.801Z,97003.23
2022-12-16T23:11:50.460Z,97010.95
2022-12-16T23:14:42.789Z,97027.85
2022-12-16T23:17:31.501Z,97047.61
2022-12-16T23:20:20.412Z,97058.63
2022-12-16T23:23:06.979Z,97056.55
2022-12-16T23:25:53.875Z,97056.59
2022-12-16T23:29:00.197Z,97047.41
2022-12-16T23:31:49.269Z,97040.95
2022-12-16T23:34:40.883Z,97036.66
2022-12-16T23:37:33.256Z,97044.29
2022-12-16T23:40:19.717Z,97051.63
2022-12-16T23:43:06.819Z,97057.64
2022-12-16T23:45:54.189Z,97059.92
2022-12-16T23:48:42.849Z,97058.95
2022-12-16T23:51:29.139Z,97048.21
2022-12-16T23:54:16.022Z,97036.52
2022-12-16T23:57:02.253Z,97033.14
2022-12-16T23:59:48.571Z,97031.44
